Time;durP1;ratioP1;P1;durP2;ratioP2;P2;SDS_P1;SDS_P2;PMS_P1;PMS_P2;Temp;Humidity;BMP_temperature;BMP_pressure;BME280_temperature;BME280_humidity;BME280_pressure;Samples;Min_cycle;Max_cycle;Signal;HPM_P1;HPM_P2
2023/05/19 00:02:54;;;;;;;7.90;2.80;;;;;;;4.24;87.14;101293.92;105680;1259;69473;-73
2023/05/19 00:05:45;;;;;;;11.40;3.30;;;;;;;4.25;87.25;101294.95;105591;1262;71326;-71
2023/05/19 00:08:36;;;;;;;9.90;3.30;;;;;;;4.25;87.07;101294.41;105722;1261;59613;-73
2023/05/19 00:11:27;;;;;;;7.70;2.70;;;;;;;4.25;86.91;101294.26;105749;1259;59602;-74
2023/05/19 00:14:15;;;;;;;9.20;2.90;;;;;;;4.24;86.61;101294.31;105830;1254;73624;-73
2023/05/19 00:17:04;;;;;;;9.80;3.40;;;;;;;4.21;86.54;101293.31;105853;1262;66407;-72
2023/05/19 00:19:53;;;;;;;8.60;3.10;;;;;;;4.18;86.62;101295.88;105818;1263;72534;-74
2023/05/19 00:22:43;;;;;;;11.10;3.10;;;;;;;4.15;86.55;101296.48;105635;1264;59640;-72
2023/05/19 00:25:32;;;;;;;8.20;2.50;;;;;;;4.14;86.82;101298.30;105604;1259;59638;-75
2023/05/19 00:28:20;;;;;;;7.60;2.50;;;;;;;4.12;86.69;101300.46;105516;1259;73079;-72
2023/05/19 00:31:08;;;;;;;9.40;2.40;;;;;;;4.09;86.54;101307.04;106286;1259;66757;-73
2023/05/19 00:33:56;;;;;;;9.10;2.30;;;;;;;4.07;86.84;101311.30;106142;1259;71734;-70
2023/05/19 00:36:45;;;;;;;9.10;2.40;;;;;;;4.05;87.08;101312.79;106473;1261;59674;-74
2023/05/19 00:39:34;;;;;;;8.20;2.50;;;;;;;4.01;87.47;101307.11;106509;1262;60315;-71
2023/05/19 00:42:22;;;;;;;7.10;2.30;;;;;;;3.98;87.92;101305.27;105514;1262;71627;-73
2023/05/19 00:45:10;;;;;;;7.90;2.70;;;;;;;3.99;88.36;101302.80;105306;1265;67933;-72
2023/05/19 00:48:00;;;;;;;7.60;2.90;;;;;;;3.98;88.32;101302.46;105158;1263;70079;-70
2023/05/19 00:50:51;;;;;;;7.10;2.40;;;;;;;3.97;88.05;101305.31;105404;1267;59723;-72
2023/05/19 00:53:39;;;;;;;8.30;2.20;;;;;;;3.96;88.00;101307.83;105356;1265;60081;-72
2023/05/19 00:56:28;;;;;;;8.10;2.00;;;;;;;3.95;87.89;101304.85;105300;1260;71742;-72
2023/05/19 00:59:16;;;;;;;7.00;2.00;;;;;;;3.93;87.78;101306.82;105304;1261;67945;-72
2023/05/19 01:02:05;;;;;;;6.30;2.30;;;;;;;3.90;87.72;101304.98;105420;1263;71422;-71
2023/05/19 01:04:56;;;;;;;6.80;2.20;;;;;;;3.88;87.86;101305.23;105518;1262;59752;-72
2023/05/19 01:07:46;;;;;;;7.30;2.40;;;;;;;3.85;88.31;101308.66;105728;1259;59599;-72
2023/05/19 01:10:34;;;;;;;7.00;2.20;;;;;;;3.80;88.56;101306.00;105482;1267;74116;-73
2023/05/19 01:13:24;;;;;;;7.60;2.00;;;;;;;3.75;88.75;101304.02;105588;1260;67032;-72
2023/05/19 01:16:41;;;;;;;8.10;1.90;;;;;;;3.73;89.12;101304.27;105662;1260;72634;-71
2023/05/19 01:19:55;;;;;;;5.70;1.60;;;;;;;3.70;89.18;101304.52;105740;1260;59609;-72
2023/05/19 01:22:56;;;;;;;6.60;1.80;;;;;;;3.70;89.68;101309.45;105862;1261;60383;-72
2023/05/19 01:26:33;;;;;;;7.80;1.80;;;;;;;3.69;89.85;101308.44;105485;1260;73062;-70
2023/05/19 01:30:09;;;;;;;7.10;1.70;;;;;;;3.68;89.98;101310.38;105705;1268;68750;-71
2023/05/19 01:33:06;;;;;;;6.20;1.80;;;;;;;3.68;90.45;101308.81;105552;1261;71134;-71
2023/05/19 01:35:56;;;;;;;7.50;1.80;;;;;;;3.67;90.43;101310.58;105997;1255;60077;-70
2023/05/19 01:38:46;;;;;;;7.60;1.50;;;;;;;3.65;90.78;101308.35;105490;1255;59997;-70
2023/05/19 01:41:35;;;;;;;6.40;2.10;;;;;;;3.63;90.77;101310.17;105502;1263;71758;-71
2023/05/19 01:44:25;;;;;;;5.90;1.80;;;;;;;3.61;90.78;101308.14;105514;1263;66760;-70
2023/05/19 01:47:14;;;;;;;5.80;1.80;;;;;;;3.59;91.27;101309.39;105692;1259;72410;-71
2023/05/19 01:50:03;;;;;;;6.30;2.10;;;;;;;3.59;91.42;101309.05;105633;1262;59730;-71
2023/05/19 01:52:52;;;;;;;7.00;1.70;;;;;;;3.58;91.17;101310.11;105436;1255;61002;-71
2023/05/19 01:55:50;;;;;;;6.20;1.70;;;;;;;3.60;91.49;101308.34;105517;1267;71981;-71
2023/05/19 01:58:51;;;;;;;6.50;1.90;;;;;;;3.61;91.49;101308.30;106184;1263;67589;-73
2023/05/19 02:01:52;;;;;;;6.80;1.90;;;;;;;3.61;91.45;101305.68;106457;1264;72765;-73
2023/05/19 02:04:59;;;;;;;7.20;1.90;;;;;;;3.61;91.35;101304.61;106694;1257;59813;-71
2023/05/19 02:08:01;;;;;;;6.00;1.80;;;;;;;3.61;91.03;101306.55;106226;1263;60131;-71
2023/05/19 02:11:07;;;;;;;5.80;1.80;;;;;;;3.61;91.43;101303.40;105515;1262;71783;-73
2023/05/19 02:13:58;;;;;;;7.80;2.00;;;;;;;3.58;91.21;101304.34;105316;1259;67304;-72
2023/05/19 02:16:48;;;;;;;7.50;1.90;;;;;;;3.56;91.13;101300.35;105269;1263;72926;-73
2023/05/19 02:19:41;;;;;;;7.20;2.30;;;;;;;3.57;91.27;101298.94;105404;1264;59733;-72
2023/05/19 02:22:30;;;;;;;6.00;1.50;;;;;;;3.57;91.31;101297.88;105390;1262;61008;-71
2023/05/19 02:25:18;;;;;;;6.80;1.80;;;;;;;3.57;91.11;101299.62;105262;1261;70860;-71
2023/05/19 02:28:07;;;;;;;7.60;1.70;;;;;;;3.58;91.28;101301.52;105298;1271;68001;-72
2023/05/19 02:30:55;;;;;;;6.90;1.60;;;;;;;3.59;91.33;101302.91;105677;1254;72467;-72
2023/05/19 02:33:44;;;;;;;8.70;2.20;;;;;;;3.58;91.06;101306.28;105476;1257;59649;-71
2023/05/19 02:36:37;;;;;;;7.00;2.10;;;;;;;3.57;91.31;101307.17;105457;1259;59747;-73
2023/05/19 02:39:29;;;;;;;7.10;1.90;;;;;;;3.56;91.51;101301.95;105651;1256;71819;-71
2023/05/19 02:42:17;;;;;;;6.80;1.90;;;;;;;3.55;91.40;101298.29;105472;1260;67816;-72
2023/05/19 02:45:06;;;;;;;5.80;1.70;;;;;;;3.55;91.41;101295.48;105433;1255;72467;-71
2023/05/19 02:47:55;;;;;;;8.60;1.80;;;;;;;3.56;91.58;101294.57;105628;1263;59653;-72
2023/05/19 02:50:45;;;;;;;8.40;1.90;;;;;;;3.58;91.66;101292.05;105571;1258;59574;-72
2023/05/19 02:53:37;;;;;;;6.20;1.90;;;;;;;3.62;91.85;101292.12;105751;1261;71933;-72
2023/05/19 02:56:25;;;;;;;7.40;2.00;;;;;;;3.64;91.72;101293.10;105946;1261;66409;-73
2023/05/19 02:59:13;;;;;;;8.30;2.10;;;;;;;3.65;91.84;101293.61;105882;1257;72413;-73
2023/05/19 03:02:04;;;;;;;8.20;1.90;;;;;;;3.66;91.83;101289.39;105636;1264;59807;-72
2023/05/19 03:04:52;;;;;;;7.90;2.10;;;;;;;3.65;91.52;101288.86;105359;1261;59821;-72
2023/05/19 03:07:40;;;;;;;8.10;1.80;;;;;;;3.67;92.12;101290.23;105349;1261;71495;-70
2023/05/19 03:10:29;;;;;;;7.90;1.90;;;;;;;3.73;92.33;101294.43;105250;1268;67750;-72
2023/05/19 03:13:18;;;;;;;8.10;2.10;;;;;;;3.80;92.36;101284.91;105326;1264;73729;-72
2023/05/19 03:16:07;;;;;;;7.40;1.80;;;;;;;3.89;92.42;101285.71;105342;1260;59627;-72
2023/05/19 03:18:56;;;;;;;9.10;1.80;;;;;;;3.98;92.24;101291.94;105366;1260;59966;-72
2023/05/19 03:21:45;;;;;;;7.50;1.80;;;;;;;4.08;92.57;101291.45;105511;1269;73415;-72
2023/05/19 03:24:33;;;;;;;6.60;1.90;;;;;;;4.20;92.16;101287.92;105987;1263;67820;-72
2023/05/19 03:27:23;;;;;;;9.00;2.00;;;;;;;4.31;91.97;101286.34;105957;1260;72709;-73
2023/05/19 03:30:12;;;;;;;7.90;2.10;;;;;;;4.43;91.73;101284.36;106294;1264;59971;-73
2023/05/19 03:33:12;;;;;;;7.70;1.90;;;;;;;4.53;91.25;101288.24;106532;1256;60185;-71
2023/05/19 03:36:05;;;;;;;8.80;2.10;;;;;;;4.62;91.09;101288.29;106838;1254;73090;-69
2023/05/19 03:38:57;;;;;;;6.50;2.20;;;;;;;4.74;91.20;101287.02;106314;1258;66581;-71
2023/05/19 03:41:46;;;;;;;8.10;2.10;;;;;;;4.85;91.05;101289.63;105869;1254;72849;-70
2023/05/19 03:44:34;;;;;;;7.80;1.80;;;;;;;4.98;91.00;101292.89;105666;1263;59704;-73
2023/05/19 03:47:23;;;;;;;6.20;1.80;;;;;;;5.13;91.02;101290.27;105774;1259;60336;-71
2023/05/19 03:50:32;;;;;;;10.60;2.20;;;;;;;5.27;90.51;101285.04;105921;1254;71299;-75
2023/05/19 03:53:32;;;;;;;6.70;1.50;;;;;;;5.43;90.23;101289.91;105785;1257;67928;-71
2023/05/19 03:56:23;;;;;;;8.00;2.20;;;;;;;5.55;89.65;101293.86;105707;1254;73760;-72
2023/05/19 03:59:11;;;;;;;7.20;2.00;;;;;;;5.67;89.56;101298.16;106098;1260;59872;-72
2023/05/19 04:01:59;;;;;;;6.70;2.00;;;;;;;5.81;89.50;101301.32;105765;1257;59584;-71
2023/05/19 04:04:49;;;;;;;8.30;1.90;;;;;;;5.95;89.11;101300.98;105548;1253;71788;-72
2023/05/19 04:07:38;;;;;;;8.60;2.40;;;;;;;6.10;88.81;101304.29;105767;1257;66332;-74
2023/05/19 04:10:27;;;;;;;8.10;2.00;;;;;;;6.26;88.35;101300.52;105742;1253;72698;-73
2023/05/19 04:13:16;;;;;;;33.30;16.70;;;;;;;6.41;88.17;101297.27;105709;1254;59730;-73
2023/05/19 04:16:06;;;;;;;9.50;3.40;;;;;;;6.56;87.51;101294.89;105543;1254;60491;-75
2023/05/19 04:18:55;;;;;;;6.00;1.90;;;;;;;6.70;86.76;101297.80;105743;1254;73123;-74
2023/05/19 04:21:45;;;;;;;6.40;2.00;;;;;;;6.85;86.08;101295.98;105820;1258;66210;-73
2023/05/19 04:24:33;;;;;;;6.00;1.70;;;;;;;6.98;85.13;101293.30;105733;1254;72633;-75
2023/05/19 04:27:22;;;;;;;8.00;2.00;;;;;;;7.11;84.91;101291.15;105698;1261;59734;-72
2023/05/19 04:30:11;;;;;;;8.10;1.60;;;;;;;7.24;83.88;101290.20;105678;1259;60121;-74
2023/05/19 04:33:03;;;;;;;6.80;1.80;;;;;;;7.35;83.17;101289.73;105707;1257;74044;-73
2023/05/19 04:35:52;;;;;;;6.30;1.50;;;;;;;7.49;82.59;101293.89;105773;1258;67878;-75
2023/05/19 04:38:40;;;;;;;6.50;2.10;;;;;;;7.65;82.07;101294.93;105457;1258;70236;-72
2023/05/19 04:41:30;;;;;;;7.50;1.70;;;;;;;7.84;81.42;101294.05;105623;1257;59730;-73
2023/05/19 04:44:19;;;;;;;9.20;1.70;;;;;;;8.02;80.63;101290.91;105611;1256;59544;-72
2023/05/19 04:47:09;;;;;;;5.90;1.60;;;;;;;8.21;79.55;101292.11;105570;1260;71088;-73
2023/05/19 04:49:59;;;;;;;6.10;1.30;;;;;;;8.42;78.75;101292.89;105293;1263;67491;-73
2023/05/19 04:52:52;;;;;;;6.20;1.50;;;;;;;8.67;77.58;101292.73;106936;1260;72734;-72
2023/05/19 04:55:40;;;;;;;6.80;1.70;;;;;;;8.98;76.63;101293.83;105470;1261;59837;-75
2023/05/19 04:58:29;;;;;;;6.40;2.10;;;;;;;9.27;75.36;101293.75;105689;1265;61286;-72
2023/05/19 05:01:24;;;;;;;5.30;1.50;;;;;;;9.46;74.11;101292.95;105483;1265;70704;-77
2023/05/19 05:04:15;;;;;;;6.80;1.70;;;;;;;9.63;74.00;101294.30;105508;1264;67211;-77
2023/05/19 05:07:04;;;;;;;5.50;1.50;;;;;;;9.80;73.28;101298.70;105825;1261;72817;-75
2023/05/19 05:09:57;;;;;;;7.00;1.50;;;;;;;10.03;72.37;101296.23;105490;1260;59760;-74
2023/05/19 05:12:48;;;;;;;6.70;1.70;;;;;;;10.33;71.57;101297.77;105598;1261;60127;-76
2023/05/19 05:15:38;;;;;;;6.30;1.50;;;;;;;10.63;70.48;101300.98;105476;1260;71492;-75
2023/05/19 05:18:33;;;;;;;5.80;1.40;;;;;;;11.02;68.88;101300.83;105577;1264;66440;-76
2023/05/19 05:21:22;;;;;;;6.90;1.50;;;;;;;11.49;68.06;101299.43;105765;1261;71423;-72
2023/05/19 05:24:12;;;;;;;6.80;1.60;;;;;;;11.90;65.54;101298.48;107586;1257;59753;-70
2023/05/19 05:27:00;;;;;;;6.20;1.40;;;;;;;12.30;64.51;101292.36;105583;1265;60228;-75
2023/05/19 05:29:51;;;;;;;7.00;1.30;;;;;;;12.72;62.48;101291.23;106023;1261;71775;-76
2023/05/19 05:32:41;;;;;;;5.90;1.40;;;;;;;13.09;60.37;101291.52;105938;1255;66433;-78
2023/05/19 05:35:37;;;;;;;7.20;1.70;;;;;;;13.49;58.95;101292.55;105885;1253;71407;-75
2023/05/19 05:38:26;;;;;;;6.30;1.30;;;;;;;13.97;58.10;101290.40;105757;1254;59704;-78
2023/05/19 05:41:17;;;;;;;6.00;1.20;;;;;;;14.42;55.83;101288.33;105801;1257;60088;-77
2023/05/19 05:44:06;;;;;;;4.90;1.20;;;;;;;14.83;54.35;101286.35;105769;1258;72043;-76
2023/05/19 05:46:55;;;;;;;4.90;1.20;;;;;;;15.15;51.86;101291.41;105689;1254;68479;-74
2023/05/19 05:49:47;;;;;;;6.40;1.30;;;;;;;15.30;49.94;101288.66;105861;1257;72787;-74
2023/05/19 05:52:39;;;;;;;6.40;1.30;;;;;;;15.54;50.17;101290.15;105660;1253;59767;-74
2023/05/19 05:55:30;;;;;;;5.50;1.30;;;;;;;16.08;49.65;101285.02;105957;1253;60106;-74
2023/05/19 06:01:42;;;;;;;5.90;1.50;;;;;;;17.38;45.46;101280.56;106862;1254;68084;-77
2023/05/19 06:04:31;;;;;;;5.50;1.10;;;;;;;18.12;43.88;101280.31;106476;1255;73769;-80
2023/05/19 06:07:23;;;;;;;6.80;1.20;;;;;;;18.77;42.40;101275.85;107713;1253;59599;-82
2023/05/19 06:10:12;;;;;;;6.20;1.00;;;;;;;19.17;40.82;101279.69;107638;1254;60569;-83
2023/05/19 06:13:21;;;;;;;5.10;1.20;;;;;;;19.41;40.88;101280.64;108307;1254;73762;-84
2023/05/19 06:16:19;;;;;;;7.30;1.20;;;;;;;19.40;39.17;101280.56;107702;1254;67625;-79
2023/05/19 06:19:08;;;;;;;7.00;1.30;;;;;;;19.42;39.53;101279.40;107219;1254;71418;-83
2023/05/19 06:22:09;;;;;;;7.00;1.30;;;;;;;19.57;39.16;101279.83;107392;1253;59606;-84
2023/05/19 06:25:07;;;;;;;5.10;1.10;;;;;;;19.72;38.97;101282.48;106590;1258;59496;-78
2023/05/19 06:27:56;;;;;;;8.70;1.60;;;;;;;19.70;37.97;101276.42;106237;1259;71767;-81
2023/05/19 06:30:46;;;;;;;7.00;1.30;;;;;;;19.78;38.15;101279.42;107100;1259;67703;-77
2023/05/19 06:33:57;;;;;;;9.60;1.70;;;;;;;19.94;37.75;101283.83;106868;1261;72900;-80
2023/05/19 06:36:46;;;;;;;9.80;1.90;;;;;;;20.31;37.58;101275.63;106715;1262;59757;-79
2023/05/19 06:39:41;;;;;;;7.20;1.60;;;;;;;20.95;37.05;101278.79;107750;1262;60296;-79
2023/05/19 06:42:31;;;;;;;7.30;1.60;;;;;;;21.67;35.35;101274.09;106431;1262;71770;-77
2023/05/19 06:45:33;;;;;;;7.90;1.70;;;;;;;22.19;34.16;101275.77;106133;1263;67895;-78
2023/05/19 06:48:25;;;;;;;6.20;1.60;;;;;;;22.75;33.29;101272.60;105719;1267;74124;-79
2023/05/19 06:51:20;;;;;;;7.80;1.70;;;;;;;23.25;32.92;101273.53;105171;1268;59746;-79
2023/05/19 06:54:14;;;;;;;7.50;1.50;;;;;;;23.71;32.43;101276.14;104626;1273;59703;-78
2023/05/19 06:57:15;;;;;;;5.50;1.30;;;;;;;24.26;31.60;101271.27;105083;1268;73069;-79
2023/05/19 07:00:12;;;;;;;9.00;1.70;;;;;;;24.73;30.99;101267.19;104752;1273;67928;-79
2023/05/19 07:03:16;;;;;;;6.40;1.40;;;;;;;25.30;28.67;101262.55;105875;1268;70530;-80
2023/05/19 07:06:14;;;;;;;5.20;1.20;;;;;;;25.96;28.38;101259.40;105428;1268;59640;-79
2023/05/19 07:09:07;;;;;;;5.90;1.10;;;;;;;26.71;27.51;101257.64;105394;1264;60073;-79
2023/05/19 07:12:00;;;;;;;6.20;1.10;;;;;;;27.42;26.51;101264.47;105544;1270;73106;-82
2023/05/19 07:14:59;;;;;;;6.20;1.10;;;;;;;27.67;25.57;101265.61;105807;1269;67675;-79
2023/05/19 07:18:05;;;;;;;5.90;1.60;;;;;;;27.70;24.77;101263.98;106423;1268;72798;-82
2023/05/19 07:20:59;;;;;;;12.90;8.40;;;;;;;27.93;25.04;101262.52;105586;1267;59614;-82
2023/05/19 07:23:49;;;;;;;8.30;2.70;;;;;;;27.94;24.98;101263.11;106704;1264;59462;-79
2023/05/19 07:26:50;;;;;;;6.00;1.10;;;;;;;27.69;25.02;101263.90;105988;1259;71764;-79
2023/05/19 07:29:44;;;;;;;6.30;1.10;;;;;;;27.92;25.21;101260.08;105952;1267;66415;-81
2023/05/19 07:32:33;;;;;;;6.70;1.20;;;;;;;28.15;24.76;101257.77;106365;1259;73082;-78
2023/05/19 07:35:37;;;;;;;6.90;1.10;;;;;;;28.29;24.73;101255.34;105647;1258;59733;-80
2023/05/19 07:38:33;;;;;;;6.30;1.20;;;;;;;28.16;24.42;101253.42;106335;1258;60050;-80
2023/05/19 07:41:24;;;;;;;5.10;1.10;;;;;;;28.01;24.66;101257.80;106144;1263;71796;-78
2023/05/19 07:44:17;;;;;;;6.50;1.20;;;;;;;27.68;25.09;101254.18;105682;1259;66754;-80
2023/05/19 07:47:07;;;;;;;7.50;1.60;;;;;;;27.57;25.82;101254.34;105953;1259;72977;-78
2023/05/19 07:49:57;;;;;;;5.30;1.00;;;;;;;27.48;25.36;101256.77;106158;1256;59712;-80
2023/05/19 07:52:59;;;;;;;6.20;1.10;;;;;;;27.43;25.08;101254.02;106193;1257;59698;-75
2023/05/19 07:55:56;;;;;;;6.70;1.10;;;;;;;27.59;24.84;101251.58;106067;1257;73092;-82
2023/05/19 07:58:48;;;;;;;6.80;1.20;;;;;;;27.25;25.28;101252.26;106450;1256;68098;-82
2023/05/19 08:01:50;;;;;;;7.60;1.10;;;;;;;26.45;26.24;101237.52;106878;1255;71517;-80
2023/05/19 08:04:47;;;;;;;5.30;1.20;;;;;;;26.13;25.86;101252.71;106729;1256;59775;-80
2023/05/19 08:07:51;;;;;;;6.80;1.50;;;;;;;25.54;26.32;101251.54;107487;1256;59620;-83
2023/05/19 08:10:46;;;;;;;5.60;1.30;;;;;;;25.30;27.00;101253.13;106940;1256;71596;-83
2023/05/19 08:13:48;;;;;;;5.80;1.20;;;;;;;25.40;27.12;101247.04;106543;1260;67941;-82
2023/05/19 08:16:41;;;;;;;5.30;1.50;;;;;;;25.27;27.02;101252.73;106544;1259;71389;-83
2023/05/19 08:19:38;;;;;;;6.40;1.30;;;;;;;25.29;27.47;101243.09;106025;1259;59816;-80
2023/05/19 08:22:27;;;;;;;5.90;1.30;;;;;;;25.57;27.39;101249.82;105981;1265;59767;-78
2023/05/19 08:25:19;;;;;;;6.00;1.30;;;;;;;25.59;27.06;101248.70;106676;1260;74219;-81
2023/05/19 08:28:10;;;;;;;7.90;1.30;;;;;;;25.35;27.35;101243.23;106032;1260;67244;-82
2023/05/19 08:31:04;;;;;;;6.70;1.90;;;;;;;25.02;27.88;101243.65;107242;1259;72149;-85
2023/05/19 08:34:02;;;;;;;7.90;2.70;;;;;;;24.31;29.04;101247.60;107130;1259;59817;-82
2023/05/19 08:36:56;;;;;;;9.00;2.50;;;;;;;23.55;29.43;101252.04;107230;1259;60306;-84
2023/05/19 08:39:47;;;;;;;10.80;3.80;;;;;;;22.87;30.85;101239.23;107100;1259;71776;-83
2023/05/19 08:42:37;;;;;;;12.70;6.70;;;;;;;22.41;32.11;101249.85;107631;1259;67766;-82
2023/05/19 08:45:33;;;;;;;8.50;2.50;;;;;;;21.91;32.45;101249.89;107772;1259;72707;-80
2023/05/19 08:48:30;;;;;;;7.20;1.80;;;;;;;21.36;33.08;101245.35;107701;1259;59679;-80
2023/05/19 08:52:19;;;;;;;8.00;3.00;;;;;;;20.72;34.26;101246.85;105910;1260;59617;-72
2023/05/19 08:55:15;;;;;;;6.80;1.60;;;;;;;20.21;35.38;101244.63;105362;1261;71810;-74
2023/05/19 08:58:07;;;;;;;11.20;4.20;;;;;;;19.97;36.45;101250.06;105275;1262;67888;-71
2023/05/19 09:00:58;;;;;;;11.20;2.90;;;;;;;19.74;37.36;101251.68;105371;1269;71202;-72
2023/05/19 09:03:48;;;;;;;7.00;1.80;;;;;;;19.53;37.72;101252.63;105298;1262;59626;-71
2023/05/19 09:06:43;;;;;;;7.80;1.90;;;;;;;19.39;38.66;101255.80;105252;1263;60372;-71
2023/05/19 09:09:32;;;;;;;6.30;1.60;;;;;;;19.30;39.29;101251.52;105309;1262;74206;-72
2023/05/19 09:12:20;;;;;;;5.80;1.40;;;;;;;19.20;39.07;101254.94;105065;1264;67032;-71
2023/05/19 09:15:09;;;;;;;8.20;1.50;;;;;;;19.04;39.56;101251.76;104916;1264;73609;-71
2023/05/19 09:18:12;;;;;;;5.50;1.50;;;;;;;18.94;40.22;101252.69;105061;1264;59754;-72
2023/05/19 09:21:01;;;;;;;7.10;1.60;;;;;;;18.91;40.55;101256.17;105017;1264;60222;-74
2023/05/19 09:23:50;;;;;;;11.80;1.70;;;;;;;18.93;40.70;101257.88;105168;1264;70778;-72
2023/05/19 09:26:41;;;;;;;7.20;1.70;;;;;;;18.92;40.75;101262.56;105154;1264;66310;-72
2023/05/19 09:29:30;;;;;;;8.30;1.60;;;;;;;18.80;40.43;101259.23;105238;1263;72861;-74
2023/05/19 09:32:28;;;;;;;6.70;1.70;;;;;;;18.66;39.75;101260.70;105361;1267;59750;-71
2023/05/19 09:35:19;;;;;;;6.30;1.50;;;;;;;18.58;40.32;101261.58;105928;1259;59581;-70
2023/05/19 09:38:09;;;;;;;7.20;1.50;;;;;;;18.52;40.80;101260.70;106156;1263;71441;-70
2023/05/19 09:41:00;;;;;;;8.10;1.40;;;;;;;18.53;41.25;101255.03;106056;1259;66471;-69
2023/05/19 09:43:55;;;;;;;6.30;1.30;;;;;;;18.53;41.47;101246.04;106084;1264;72821;-73
2023/05/19 09:46:49;;;;;;;9.10;3.80;;;;;;;18.42;40.93;101249.98;105810;1256;59628;-74
2023/05/19 09:49:46;;;;;;;7.70;2.40;;;;;;;18.30;41.61;101248.50;106122;1257;59580;-71
2023/05/19 09:52:37;;;;;;;8.10;1.90;;;;;;;18.12;41.91;101247.29;106269;1256;72831;-72
2023/05/19 09:55:28;;;;;;;7.80;1.50;;;;;;;17.88;42.12;101245.34;105305;1256;1002851;-73
2023/05/19 09:58:20;;;;;;;6.10;1.80;;;;;;;17.72;42.65;101248.14;105809;1256;72711;-71
2023/05/19 10:01:08;;;;;;;8.50;1.90;;;;;;;17.54;42.97;101247.38;105759;1261;59747;-71
2023/05/19 10:03:57;;;;;;;7.10;1.90;;;;;;;17.38;43.12;101248.65;105528;1256;60449;-73
2023/05/19 10:06:45;;;;;;;7.20;1.80;;;;;;;17.20;43.02;101243.21;105585;1260;72684;-72
2023/05/19 10:09:36;;;;;;;7.80;2.30;;;;;;;16.99;43.38;101245.19;105569;1257;66543;-69
2023/05/19 10:12:26;;;;;;;8.60;1.70;;;;;;;16.81;44.20;101243.27;105575;1262;72673;-71
2023/05/19 10:15:19;;;;;;;5.80;1.60;;;;;;;16.69;44.61;101243.60;105524;1260;59741;-73
2023/05/19 10:18:14;;;;;;;7.40;1.90;;;;;;;16.57;44.69;101241.39;105492;1256;60107;-69
2023/05/19 10:21:05;;;;;;;8.40;1.70;;;;;;;16.56;44.86;101245.80;105456;1256;71897;-72
2023/05/19 10:23:57;;;;;;;6.10;1.80;;;;;;;16.43;45.08;101245.22;105528;1260;67828;-71
2023/05/19 10:27:02;;;;;;;7.90;2.00;;;;;;;16.35;45.34;101247.70;105416;1260;72780;-68
2023/05/19 10:29:51;;;;;;;8.10;2.20;;;;;;;16.32;46.04;101248.07;105565;1258;59722;-72
2023/05/19 10:32:43;;;;;;;7.70;2.00;;;;;;;16.32;46.89;101247.92;105510;1256;62211;-73
2023/05/19 10:36:01;;;;;;;6.80;2.10;;;;;;;16.29;47.09;101247.30;105590;1259;71851;-72
2023/05/19 10:39:04;;;;;;;7.90;2.10;;;;;;;16.22;47.13;101245.72;105806;1259;67657;-72
2023/05/19 10:42:29;;;;;;;7.30;1.90;;;;;;;16.17;47.37;101245.92;106021;1257;72484;-72
2023/05/19 10:45:23;;;;;;;8.40;2.10;;;;;;;16.04;47.92;101232.56;105920;1256;59564;-70
2023/05/19 10:48:18;;;;;;;6.90;2.00;;;;;;;15.94;48.26;101239.96;105726;1257;60174;-71
2023/05/19 10:51:10;;;;;;;7.60;2.10;;;;;;;15.88;48.64;101240.83;105665;1255;71753;-71
2023/05/19 10:54:08;;;;;;;8.20;2.00;;;;;;;15.79;48.94;101245.41;105742;1259;67677;-72
2023/05/19 10:56:59;;;;;;;8.10;2.20;;;;;;;15.75;48.95;101246.63;105676;1259;71569;-71
2023/05/19 10:59:48;;;;;;;25.00;15.60;;;;;;;15.71;49.08;101245.39;105607;1261;59823;-73
2023/05/19 11:02:44;;;;;;;10.90;4.30;;;;;;;15.64;48.72;101243.25;105620;1256;59667;-72
2023/05/19 11:05:35;;;;;;;9.80;3.00;;;;;;;15.57;48.76;101242.58;105742;1257;70671;-72
2023/05/19 11:08:35;;;;;;;7.60;1.90;;;;;;;15.49;48.68;101241.61;105767;1256;68848;-72
2023/05/19 11:11:23;;;;;;;8.80;2.20;;;;;;;15.29;47.91;101242.45;105873;1255;72445;-73
2023/05/19 11:14:15;;;;;;;7.50;2.00;;;;;;;15.09;47.63;101240.74;105680;1262;59566;-71
2023/05/19 11:17:13;;;;;;;6.90;1.90;;;;;;;14.93;48.16;101246.31;105776;1259;59593;-71
2023/05/19 11:20:03;;;;;;;6.30;1.90;;;;;;;14.73;49.06;101244.59;105611;1257;71724;-71
2023/05/19 11:23:07;;;;;;;9.70;1.70;;;;;;;14.61;49.62;101245.73;105695;1256;66755;-72
2023/05/19 11:25:56;;;;;;;6.80;2.00;;;;;;;14.53;50.51;101246.98;105814;1256;72356;-70
2023/05/19 11:28:47;;;;;;;6.50;1.90;;;;;;;14.46;50.37;101244.61;105592;1256;59628;-71
2023/05/19 11:31:36;;;;;;;6.40;1.80;;;;;;;14.36;50.85;101243.30;105776;1259;59563;-71
2023/05/19 11:34:26;;;;;;;8.00;2.40;;;;;;;14.28;51.21;101243.30;105623;1256;72368;-70
2023/05/19 11:37:15;;;;;;;8.20;3.10;;;;;;;14.23;51.39;101244.42;105515;1256;66816;-70
2023/05/19 11:40:06;;;;;;;7.60;2.30;;;;;;;14.22;52.38;101247.91;105857;1257;71525;-71
2023/05/19 11:42:54;;;;;;;8.40;2.30;;;;;;;14.20;52.07;101245.73;105456;1256;59668;-70
2023/05/19 11:45:44;;;;;;;10.50;2.10;;;;;;;14.21;52.33;101249.42;106912;1256;60042;-73
2023/05/19 11:48:32;;;;;;;8.10;2.00;;;;;;;14.24;52.31;101247.23;106123;1257;72886;-73
2023/05/19 11:51:22;;;;;;;8.10;2.10;;;;;;;14.25;52.09;101250.52;105954;1257;68206;-70
2023/05/19 11:54:11;;;;;;;10.70;2.90;;;;;;;14.27;52.10;101254.96;106472;1254;71301;-71
2023/05/19 11:57:01;;;;;;;11.60;2.70;;;;;;;14.37;52.04;101257.68;106795;1254;59971;-72
2023/05/19 11:59:52;;;;;;;12.30;2.60;;;;;;;14.50;51.79;101257.39;106247;1258;60367;-73
2023/05/19 12:02:40;;;;;;;9.20;2.40;;;;;;;14.64;51.78;101260.14;106014;1253;72156;-72
2023/05/19 12:05:30;;;;;;;10.30;2.50;;;;;;;14.79;51.07;101265.38;105769;1259;68080;-74
2023/05/19 12:08:24;;;;;;;7.10;1.80;;;;;;;14.93;50.30;101268.44;105518;1264;72503;-69
2023/05/19 12:11:13;;;;;;;7.20;2.10;;;;;;;14.98;49.07;101270.95;105525;1259;59641;-72
2023/05/19 12:14:02;;;;;;;7.20;1.90;;;;;;;14.97;48.44;101271.38;105528;1259;60375;-70
2023/05/19 12:16:50;;;;;;;6.50;1.70;;;;;;;14.90;48.15;101280.48;105341;1260;73142;-71
2023/05/19 12:19:49;;;;;;;7.80;1.90;;;;;;;14.79;49.08;101275.79;105504;1258;68911;-72
2023/05/19 12:22:37;;;;;;;7.70;2.00;;;;;;;14.86;49.19;101287.77;105543;1257;71073;-71
2023/05/19 12:25:26;;;;;;;8.20;2.30;;;;;;;14.89;49.49;101290.77;105517;1258;59744;-72
2023/05/19 12:28:15;;;;;;;10.80;2.10;;;;;;;14.91;49.38;101292.78;105545;1257;60064;-70
2023/05/19 12:31:05;;;;;;;6.60;1.80;;;;;;;14.95;49.97;101292.08;105486;1258;70615;-69
2023/05/19 12:33:54;;;;;;;8.50;1.80;;;;;;;15.00;49.82;101295.63;105626;1258;67932;-70
2023/05/19 12:36:45;;;;;;;7.00;2.20;;;;;;;15.04;49.40;101294.30;106421;1258;73682;-70
2023/05/19 12:39:35;;;;;;;7.80;2.00;;;;;;;15.08;49.21;101298.23;107232;1260;59846;-72
2023/05/19 12:42:30;;;;;;;6.30;2.00;;;;;;;15.11;49.94;101300.67;106498;1260;59490;-72
2023/05/19 12:45:26;;;;;;;7.60;1.80;;;;;;;15.18;49.60;101299.30;106538;1253;71430;-73
2023/05/19 12:48:15;;;;;;;9.20;2.20;;;;;;;15.18;48.20;101298.23;106418;1257;67886;-73
2023/05/19 12:51:04;;;;;;;7.00;2.00;;;;;;;15.20;47.33;101294.98;106372;1253;71300;-76
2023/05/19 12:53:53;;;;;;;7.60;2.10;;;;;;;15.25;46.91;101296.61;106039;1253;59701;-75
2023/05/19 12:56:50;;;;;;;7.30;2.00;;;;;;;15.34;47.05;101293.71;105729;1254;60311;-74
2023/05/19 12:59:41;;;;;;;8.80;3.00;;;;;;;15.45;47.08;101295.55;107356;1254;72920;-78
2023/05/19 13:02:33;;;;;;;9.10;1.90;;;;;;;15.41;46.32;101292.11;106456;1262;68358;-79
2023/05/19 13:05:21;;;;;;;9.10;2.10;;;;;;;15.35;46.85;101287.72;106265;1259;72741;-78
2023/05/19 13:08:15;;;;;;;8.40;2.70;;;;;;;15.36;47.97;101287.28;106555;1253;59585;-79
2023/05/19 13:11:03;;;;;;;7.70;2.20;;;;;;;15.40;47.97;101287.02;107252;1253;60043;-84
2023/05/19 13:13:52;;;;;;;7.90;2.10;;;;;;;15.36;48.19;101283.38;105861;1257;73121;-72
2023/05/19 13:16:41;;;;;;;7.70;2.30;;;;;;;15.26;48.05;101282.38;106134;1253;68402;-74
2023/05/19 13:19:29;;;;;;;8.60;2.20;;;;;;;15.15;48.81;101276.98;105882;1253;71342;-72
2023/05/19 13:22:18;;;;;;;10.70;2.80;;;;;;;15.06;49.63;101280.73;105963;1260;59615;-72